Time;durP1;ratioP1;P1;durP2;ratioP2;P2;SDS_P1;SDS_P2;PMS_P1;PMS_P2;Temp;Humidity;BMP_temperature;BMP_pressure;BME280_temperature;BME280_humidity;BME280_pressure;Samples;Min_cycle;Max_cycle;Signal;HPM_P1;HPM_P2
2021/05/26 00:00:53;;;;;;;1.05;0.50;;;12.20;99.90;;;;;;1966136;72;21070;-79
2021/05/26 00:03:19;;;;;;;0.23;0.23;;;12.20;99.90;;;;;;1972589;72;21475;-79
2021/05/26 00:05:45;;;;;;;1.30;0.60;;;12.20;99.90;;;;;;1970752;72;21241;-79
2021/05/26 00:08:11;;;;;;;1.15;0.60;;;12.30;99.90;;;;;;1977490;72;21436;-79
2021/05/26 00:10:37;;;;;;;0.60;0.53;;;12.30;99.90;;;;;;1977531;72;21133;-79
2021/05/26 00:13:03;;;;;;;4.78;0.88;;;12.30;99.90;;;;;;1974239;72;21203;-79
2021/05/26 00:15:29;;;;;;;0.62;0.50;;;12.40;99.90;;;;;;1971206;72;21173;-79
2021/05/26 00:17:56;;;;;;;2.00;0.60;;;12.40;99.90;;;;;;1967427;72;21028;-78
2021/05/26 00:20:22;;;;;;;2.20;0.45;;;12.40;99.90;;;;;;1973264;72;21129;-79
2021/05/26 00:22:48;;;;;;;1.05;0.50;;;12.40;99.90;;;;;;1970233;72;21067;-78
2021/05/26 00:25:14;;;;;;;1.00;0.68;;;12.40;99.90;;;;;;1972392;72;21105;-78
2021/05/26 00:27:40;;;;;;;1.77;0.55;;;12.50;99.90;;;;;;1971100;72;21040;-78
2021/05/26 00:30:06;;;;;;;1.02;0.40;;;12.40;99.90;;;;;;1970364;72;21023;-78
2021/05/26 00:32:32;;;;;;;1.17;0.40;;;12.40;99.90;;;;;;1983161;72;21067;-78
2021/05/26 00:34:58;;;;;;;6.35;0.50;;;12.40;99.90;;;;;;1974309;72;21074;-77
2021/05/26 00:37:25;;;;;;;2.37;0.93;;;12.40;99.90;;;;;;1974497;73;21444;-78
2021/05/26 00:39:52;;;;;;;1.32;0.47;;;12.40;99.90;;;;;;1974455;73;21507;-78
2021/05/26 00:42:18;;;;;;;0.90;0.53;;;12.40;99.90;;;;;;1974433;73;21070;-78
2021/05/26 00:44:44;;;;;;;1.02;0.40;;;12.40;99.90;;;;;;1974378;73;21051;-77
2021/05/26 00:47:10;;;;;;;0.80;0.30;;;12.40;99.90;;;;;;1967685;72;21131;-78
2021/05/26 00:49:37;;;;;;;0.88;0.40;;;12.40;99.90;;;;;;1975589;72;21034;-78
2021/05/26 00:52:03;;;;;;;1.65;0.47;;;12.40;99.90;;;;;;1975184;72;21059;-77
2021/05/26 00:54:30;;;;;;;1.40;0.30;;;12.40;99.90;;;;;;1974378;73;21067;-78
2021/05/26 00:56:56;;;;;;;0.72;0.40;;;12.40;99.90;;;;;;1968030;72;21120;-78
2021/05/26 00:59:23;;;;;;;6.33;0.90;;;12.30;99.90;;;;;;1968042;72;21128;-77
2021/05/26 01:01:49;;;;;;;0.30;0.30;;;12.30;99.90;;;;;;1990364;72;21104;-78
2021/05/26 01:04:15;;;;;;;1.40;0.30;;;12.20;99.90;;;;;;1974505;72;21063;-78
2021/05/26 01:06:41;;;;;;;1.35;0.50;;;12.20;99.90;;;;;;1967151;72;21083;-77
2021/05/26 01:09:07;;;;;;;0.25;0.25;;;12.20;99.90;;;;;;1974749;72;21092;-77
2021/05/26 01:11:33;;;;;;;0.40;0.40;;;12.20;99.90;;;;;;1969477;72;21073;-78
2021/05/26 01:13:59;;;;;;;3.65;0.40;;;12.30;99.90;;;;;;1977859;72;21045;-77
2021/05/26 01:16:25;;;;;;;0.70;0.47;;;12.30;99.90;;;;;;1978154;71;21073;-78
2021/05/26 01:18:52;;;;;;;1.20;0.50;;;12.30;99.90;;;;;;1977595;73;21303;-77
2021/05/26 01:21:18;;;;;;;1.67;0.35;;;12.40;99.90;;;;;;1982567;72;21540;-78
2021/05/26 01:23:45;;;;;;;1.05;0.50;;;12.30;99.90;;;;;;1978558;72;21480;-78
2021/05/26 01:26:11;;;;;;;3.08;0.40;;;12.30;99.90;;;;;;1971233;72;21254;-77
2021/05/26 01:28:37;;;;;;;1.85;0.40;;;12.30;99.90;;;;;;1974361;72;21040;-78
2021/05/26 01:31:03;;;;;;;0.55;0.42;;;12.30;99.90;;;;;;1974519;73;21504;-77
2021/05/26 01:33:29;;;;;;;1.77;0.50;;;12.20;99.90;;;;;;1974287;72;21472;-78
2021/05/26 01:35:55;;;;;;;1.35;0.50;;;12.10;99.90;;;;;;1975712;72;21127;-77
2021/05/26 01:38:21;;;;;;;0.35;0.30;;;12.00;99.90;;;;;;1972495;72;21061;-77
2021/05/26 01:40:48;;;;;;;3.00;0.78;;;11.80;99.90;;;;;;1978725;72;21050;-78
2021/05/26 01:43:14;;;;;;;6.78;0.33;;;11.60;99.90;;;;;;1972477;72;21051;-77
2021/05/26 01:45:40;;;;;;;1.62;0.57;;;11.50;99.90;;;;;;1975653;72;21050;-78
2021/05/26 01:48:06;;;;;;;1.45;0.40;;;11.40;99.90;;;;;;1980779;72;21063;-76
2021/05/26 01:50:34;;;;;;;0.40;0.40;;;11.30;99.90;;;;;;1965220;72;21216;-77
2021/05/26 01:53:00;;;;;;;2.02;0.60;;;11.30;99.90;;;;;;1977044;72;21063;-77
2021/05/26 01:55:26;;;;;;;5.67;0.45;;;11.20;99.90;;;;;;1974385;73;21047;-77
2021/05/26 01:57:52;;;;;;;3.65;0.62;;;11.20;99.90;;;;;;1972623;72;21083;-77
2021/05/26 02:00:18;;;;;;;2.33;0.60;;;11.20;99.90;;;;;;1971670;72;21055;-77
2021/05/26 02:02:45;;;;;;;0.90;0.40;;;11.10;99.90;;;;;;1974457;73;21043;-77
2021/05/26 02:05:11;;;;;;;2.92;0.75;;;11.10;99.90;;;;;;1974358;73;21179;-77
2021/05/26 02:07:37;;;;;;;1.00;0.50;;;11.00;99.90;;;;;;1971041;72;21526;-77
2021/05/26 02:10:03;;;;;;;3.17;0.45;;;11.00;99.90;;;;;;1970983;72;21546;-76
2021/05/26 02:12:33;;;;;;;3.87;0.50;;;11.00;99.90;;;;;;1977253;72;21464;-76
2021/05/26 02:14:59;;;;;;;0.50;0.47;;;10.90;99.90;;;;;;1970469;72;21161;-77
2021/05/26 02:17:26;;;;;;;5.85;0.42;;;10.90;99.90;;;;;;1970225;72;21161;-78
2021/05/26 02:19:52;;;;;;;2.27;0.70;;;10.90;99.90;;;;;;1971691;72;21063;-78
2021/05/26 02:22:18;;;;;;;2.98;0.57;;;10.90;99.90;;;;;;1968594;72;21120;-77
2021/05/26 02:24:45;;;;;;;1.45;0.60;;;11.00;99.90;;;;;;1972421;72;21036;-77
2021/05/26 02:27:11;;;;;;;4.85;0.40;;;10.90;99.90;;;;;;1972226;72;21141;-77
2021/05/26 02:29:37;;;;;;;0.72;0.50;;;10.80;99.90;;;;;;1969804;72;21185;-77
2021/05/26 02:32:03;;;;;;;3.22;0.47;;;10.80;99.90;;;;;;1978220;72;21137;-76
2021/05/26 02:34:29;;;;;;;1.50;0.50;;;10.80;99.90;;;;;;1975045;72;21059;-77
2021/05/26 02:36:56;;;;;;;0.55;0.55;;;10.80;99.90;;;;;;1974379;72;21024;-77
2021/05/26 02:39:22;;;;;;;2.17;0.68;;;10.80;99.90;;;;;;1973902;72;21051;-76
2021/05/26 02:41:48;;;;;;;1.75;0.60;;;10.70;99.90;;;;;;1973078;72;21051;-77
2021/05/26 02:44:14;;;;;;;1.45;0.40;;;10.70;99.90;;;;;;1976659;72;21206;-77
2021/05/26 02:46:40;;;;;;;3.72;0.65;;;10.70;99.90;;;;;;1968397;72;21040;-77
2021/05/26 02:49:06;;;;;;;1.20;0.50;;;10.70;99.90;;;;;;1977384;72;21058;-78
2021/05/26 02:51:32;;;;;;;0.28;0.28;;;10.70;99.90;;;;;;1970657;72;21197;-77
2021/05/26 02:53:58;;;;;;;2.55;0.62;;;10.60;99.90;;;;;;1979866;72;21144;-77
2021/05/26 02:56:25;;;;;;;3.27;0.75;;;10.70;99.90;;;;;;1976968;72;21036;-77
2021/05/26 02:58:51;;;;;;;1.00;0.40;;;10.70;99.90;;;;;;1972527;72;21526;-77
2021/05/26 03:01:17;;;;;;;1.00;0.42;;;10.80;99.90;;;;;;1984510;72;21521;-77
2021/05/26 03:03:43;;;;;;;0.90;0.40;;;10.70;99.90;;;;;;1974162;72;21475;-78
2021/05/26 03:06:09;;;;;;;0.65;0.50;;;10.70;99.90;;;;;;1969384;72;21424;-77
2021/05/26 03:08:35;;;;;;;2.05;0.57;;;10.70;99.90;;;;;;1961332;72;21062;-77
2021/05/26 03:11:01;;;;;;;4.85;0.80;;;10.60;99.90;;;;;;1974460;72;21095;-77
2021/05/26 03:13:27;;;;;;;2.52;1.22;;;10.60;99.90;;;;;;1969614;72;21058;-77
2021/05/26 03:15:55;;;;;;;4.35;0.80;;;10.60;99.90;;;;;;1975524;72;21054;-77
2021/05/26 03:18:22;;;;;;;1.52;0.60;;;10.50;99.90;;;;;;1969328;72;21063;-78
2021/05/26 03:20:48;;;;;;;4.33;0.70;;;10.50;99.90;;;;;;1975512;72;21032;-77
2021/05/26 03:23:14;;;;;;;3.65;0.60;;;10.60;99.90;;;;;;1974556;73;21120;-77
2021/05/26 03:25:40;;;;;;;1.32;0.75;;;10.50;99.90;;;;;;1967187;72;21058;-77
2021/05/26 03:28:06;;;;;;;0.50;0.40;;;10.50;99.90;;;;;;1979638;72;21128;-77
2021/05/26 03:30:33;;;;;;;2.58;0.65;;;10.60;99.90;;;;;;1968457;72;21123;-78
2021/05/26 03:32:59;;;;;;;3.87;0.80;;;10.60;99.90;;;;;;1970963;72;21067;-77
2021/05/26 03:35:26;;;;;;;3.37;0.50;;;10.60;99.90;;;;;;1970927;72;21063;-77
2021/05/26 03:37:53;;;;;;;1.92;0.70;;;10.60;99.90;;;;;;1975186;72;21070;-76
2021/05/26 03:40:19;;;;;;;1.40;0.50;;;10.60;99.90;;;;;;1972746;72;21068;-77
2021/05/26 03:42:45;;;;;;;1.77;0.72;;;10.50;99.90;;;;;;1967136;72;21050;-78
2021/05/26 03:45:11;;;;;;;3.72;0.53;;;10.50;99.90;;;;;;1974145;72;21087;-78
2021/05/26 03:47:37;;;;;;;0.53;0.47;;;10.60;99.90;;;;;;1973933;72;21059;-78
2021/05/26 03:50:03;;;;;;;2.25;0.50;;;10.60;99.90;;;;;;1966117;72;21057;-78
2021/05/26 03:52:29;;;;;;;0.88;0.40;;;10.50;99.90;;;;;;1974389;72;21136;-77
2021/05/26 03:54:55;;;;;;;2.10;0.85;;;10.60;99.90;;;;;;1968331;72;21036;-78
2021/05/26 03:57:21;;;;;;;1.37;0.60;;;10.50;99.90;;;;;;1980870;72;21548;-79
2021/05/26 03:59:48;;;;;;;4.22;0.72;;;10.50;99.90;;;;;;1974351;72;21451;-78
2021/05/26 04:02:14;;;;;;;1.20;0.65;;;10.60;99.90;;;;;;1985098;72;21495;-78
2021/05/26 04:04:41;;;;;;;0.75;0.45;;;10.60;99.90;;;;;;1969576;72;21446;-78
2021/05/26 04:07:07;;;;;;;2.30;0.60;;;10.60;99.90;;;;;;1973808;72;21063;-78
2021/05/26 04:09:34;;;;;;;0.72;0.47;;;10.50;99.90;;;;;;1971164;72;21494;-78
2021/05/26 04:12:00;;;;;;;0.93;0.60;;;10.60;99.90;;;;;;1970425;72;21547;-78
2021/05/26 04:14:26;;;;;;;0.62;0.45;;;10.50;99.90;;;;;;1984817;72;21121;-78
2021/05/26 04:16:52;;;;;;;0.95;0.50;;;10.50;99.90;;;;;;1973249;72;21031;-78
2021/05/26 04:19:18;;;;;;;1.85;0.60;;;10.50;99.90;;;;;;1967213;72;21066;-78
2021/05/26 04:21:44;;;;;;;1.90;0.60;;;10.50;99.90;;;;;;1968630;72;21054;-79
2021/05/26 04:24:10;;;;;;;6.55;0.60;;;10.50;99.90;;;;;;1982173;72;21133;-78
2021/05/26 04:26:36;;;;;;;1.40;0.45;;;10.40;99.90;;;;;;1976374;72;21032;-78
2021/05/26 04:29:03;;;;;;;2.40;1.05;;;10.50;99.90;;;;;;1974622;72;21184;-78
2021/05/26 04:31:29;;;;;;;1.27;0.50;;;10.50;99.90;;;;;;1971207;72;21144;-78
2021/05/26 04:33:55;;;;;;;2.60;0.75;;;10.50;99.90;;;;;;1974659;72;21129;-78
2021/05/26 04:36:21;;;;;;;0.70;0.53;;;10.50;99.90;;;;;;1970870;72;21515;-78
2021/05/26 04:38:48;;;;;;;3.80;0.70;;;10.60;99.90;;;;;;1975541;72;21474;-78
2021/05/26 04:41:14;;;;;;;1.57;0.65;;;10.60;99.90;;;;;;1972915;72;21451;-78
2021/05/26 04:43:40;;;;;;;0.60;0.47;;;10.50;99.90;;;;;;1980708;72;21452;-78
2021/05/26 04:46:06;;;;;;;3.90;0.80;;;10.50;99.90;;;;;;1980812;72;21476;-78
2021/05/26 04:48:32;;;;;;;2.17;0.90;;;10.40;99.90;;;;;;1974509;73;21047;-78
2021/05/26 04:50:58;;;;;;;1.10;0.70;;;10.40;99.90;;;;;;1974579;73;21055;-78
2021/05/26 04:53:26;;;;;;;2.45;0.75;;;10.40;99.90;;;;;;1963552;72;21055;-78
2021/05/26 04:55:52;;;;;;;2.08;0.88;;;10.40;99.90;;;;;;1973918;72;21178;-78
2021/05/26 04:58:18;;;;;;;2.35;0.60;;;10.40;99.90;;;;;;1971139;72;21125;-78
2021/05/26 05:00:44;;;;;;;0.85;0.70;;;10.50;99.90;;;;;;1968890;72;21036;-78
2021/05/26 05:03:10;;;;;;;2.40;0.70;;;10.40;99.90;;;;;;1969192;72;21064;-78
2021/05/26 05:05:36;;;;;;;2.45;0.62;;;10.50;99.90;;;;;;1967643;72;21148;-77
2021/05/26 05:08:02;;;;;;;4.37;0.72;;;10.50;99.90;;;;;;1971947;72;21061;-77
2021/05/26 05:10:28;;;;;;;2.17;0.60;;;10.50;99.90;;;;;;1991651;72;21073;-76
2021/05/26 05:12:55;;;;;;;0.85;0.50;;;10.50;99.90;;;;;;1978798;72;21479;-75
2021/05/26 05:15:21;;;;;;;2.22;0.80;;;10.40;99.90;;;;;;1972681;72;21442;-78
2021/05/26 05:17:47;;;;;;;1.40;0.62;;;10.50;99.90;;;;;;1982167;72;21471;-77
2021/05/26 05:20:13;;;;;;;1.42;0.62;;;10.50;99.90;;;;;;1979037;72;21428;-76
2021/05/26 05:22:39;;;;;;;1.12;0.50;;;10.50;99.90;;;;;;1985376;72;21475;-79
2021/05/26 05:25:06;;;;;;;5.83;0.95;;;10.50;99.90;;;;;;1971805;72;21137;-79
2021/05/26 05:27:32;;;;;;;3.22;0.70;;;10.50;99.90;;;;;;1973984;72;21208;-79
2021/05/26 05:29:58;;;;;;;4.70;1.87;;;10.50;99.90;;;;;;1972694;72;21111;-80
2021/05/26 05:32:24;;;;;;;6.87;3.12;;;10.50;99.90;;;;;;1978980;72;21037;-78
2021/05/26 05:34:50;;;;;;;1.42;0.93;;;10.50;99.90;;;;;;1972713;72;21117;-79
2021/05/26 05:37:16;;;;;;;1.05;0.53;;;10.50;99.90;;;;;;1976352;72;21124;-79
2021/05/26 05:39:42;;;;;;;3.47;0.60;;;10.60;99.90;;;;;;1969370;72;21136;-77
2021/05/26 05:42:08;;;;;;;0.62;0.50;;;10.50;99.90;;;;;;1971688;72;21062;-77
2021/05/26 05:44:35;;;;;;;2.00;0.88;;;10.50;99.90;;;;;;1975054;72;21043;-79
2021/05/26 05:47:01;;;;;;;0.40;0.40;;;10.60;99.90;;;;;;1970115;72;21528;-78
2021/05/26 05:49:27;;;;;;;1.05;0.50;;;10.50;99.90;;;;;;1968304;72;21424;-79
2021/05/26 05:51:53;;;;;;;6.75;0.80;;;10.50;99.90;;;;;;1971911;72;21465;-79
2021/05/26 05:54:19;;;;;;;2.30;0.80;;;10.50;99.90;;;;;;1975839;72;21465;-80
2021/05/26 05:56:45;;;;;;;5.15;0.98;;;10.50;99.90;;;;;;1967115;72;21466;-80
2021/05/26 05:59:11;;;;;;;2.22;0.60;;;10.50;99.90;;;;;;1970003;72;21099;-79
2021/05/26 06:01:38;;;;;;;1.82;0.50;;;10.50;99.90;;;;;;1974590;73;21120;-79
2021/05/26 06:04:04;;;;;;;1.27;0.75;;;10.50;99.90;;;;;;1970509;72;21071;-79
2021/05/26 06:06:31;;;;;;;2.35;0.65;;;10.50;99.90;;;;;;1977204;72;21059;-79
2021/05/26 06:08:57;;;;;;;3.22;0.90;;;10.50;99.90;;;;;;1973930;72;21071;-78
2021/05/26 06:11:23;;;;;;;3.20;0.98;;;10.50;99.90;;;;;;1971189;72;21121;-75
2021/05/26 06:13:50;;;;;;;0.78;0.55;;;10.60;99.90;;;;;;1974379;72;21541;-75
2021/05/26 06:16:17;;;;;;;1.60;0.57;;;10.70;99.90;;;;;;1969302;72;21079;-75
2021/05/26 06:18:43;;;;;;;4.33;0.72;;;10.60;99.90;;;;;;1975794;72;21058;-74
2021/05/26 06:21:09;;;;;;;2.15;0.88;;;10.70;99.90;;;;;;1972397;72;21125;-77
2021/05/26 06:23:35;;;;;;;2.58;0.57;;;10.70;99.90;;;;;;1972813;72;21066;-76
2021/05/26 06:26:01;;;;;;;3.90;1.00;;;10.60;99.90;;;;;;1974319;72;21123;-76
2021/05/26 06:28:27;;;;;;;2.45;0.47;;;10.80;99.90;;;;;;1974538;73;21137;-76
2021/05/26 06:30:56;;;;;;;1.75;0.65;;;10.90;99.90;;;;;;1972632;72;21540;-76
2021/05/26 06:33:21;;;;;;;4.95;0.50;;;10.80;99.90;;;;;;1978770;72;21059;-74
2021/05/26 06:35:47;;;;;;;0.82;0.60;;;11.10;99.90;;;;;;1974498;73;21024;-76
2021/05/26 06:38:13;;;;;;;1.02;0.62;;;11.10;99.90;;;;;;1970810;72;21117;-76
2021/05/26 06:40:40;;;;;;;1.55;0.53;;;11.20;99.90;;;;;;1975978;72;21124;-76
2021/05/26 06:43:06;;;;;;;1.50;0.60;;;11.30;99.90;;;;;;1988683;72;21478;-76
2021/05/26 06:45:32;;;;;;;3.52;0.82;;;11.40;99.90;;;;;;1973159;72;21110;-76
2021/05/26 06:47:58;;;;;;;2.12;0.88;;;11.40;99.90;;;;;;1975806;72;21064;-76
2021/05/26 06:50:24;;;;;;;2.35;0.80;;;11.30;99.90;;;;;;1971161;72;21047;-76
2021/05/26 06:52:50;;;;;;;6.53;0.70;;;11.30;99.90;;;;;;1961905;72;21054;-76
2021/05/26 06:55:16;;;;;;;5.62;0.90;;;11.30;99.90;;;;;;1976241;72;21059;-76
2021/05/26 06:57:43;;;;;;;2.30;0.65;;;11.50;99.90;;;;;;1974624;72;21080;-77
2021/05/26 07:00:09;;;;;;;2.72;0.80;;;11.70;99.90;;;;;;1977231;72;21047;-76
2021/05/26 07:02:35;;;;;;;2.08;0.70;;;11.90;99.90;;;;;;1973410;72;21106;-77
2021/05/26 07:05:02;;;;;;;1.85;0.80;;;11.90;99.90;;;;;;1981403;72;21518;-76
2021/05/26 07:07:28;;;;;;;2.72;0.70;;;11.90;99.90;;;;;;1973562;72;21123;-76
2021/05/26 07:09:55;;;;;;;2.70;0.68;;;11.90;99.90;;;;;;1962817;72;21050;-77
2021/05/26 07:12:21;;;;;;;2.10;0.57;;;12.00;99.90;;;;;;1972949;72;21126;-77
2021/05/26 07:14:49;;;;;;;3.17;0.82;;;11.90;99.90;;;;;;1976038;72;21044;-76
2021/05/26 07:17:15;;;;;;;2.30;0.75;;;12.00;99.90;;;;;;1974607;72;21106;-77
2021/05/26 07:19:41;;;;;;;6.15;0.80;;;12.20;99.90;;;;;;1977702;72;21348;-77
2021/05/26 07:22:07;;;;;;;5.85;0.80;;;12.20;99.90;;;;;;1969132;72;21031;-77
2021/05/26 07:24:33;;;;;;;3.52;0.60;;;12.10;99.90;;;;;;1969977;72;21063;-77
2021/05/26 07:26:59;;;;;;;1.05;0.60;;;12.00;99.90;;;;;;1975894;72;21128;-77
2021/05/26 07:29:26;;;;;;;2.50;0.55;;;11.90;99.90;;;;;;1986403;72;21055;-77
2021/05/26 07:31:52;;;;;;;8.50;0.78;;;11.90;99.90;;;;;;1977908;72;21122;-77
2021/05/26 07:34:18;;;;;;;3.87;0.80;;;11.90;99.90;;;;;;1989282;72;21524;-77
2021/05/26 07:36:44;;;;;;;5.28;0.93;;;12.00;99.90;;;;;;1974764;72;21671;-77
2021/05/26 07:39:10;;;;;;;4.65;0.78;;;12.00;99.90;;;;;;1991479;72;21459;-77
2021/05/26 07:41:36;;;;;;;2.58;0.72;;;11.90;99.90;;;;;;1973087;72;21423;-77
2021/05/26 07:44:02;;;;;;;3.80;0.62;;;11.90;99.90;;;;;;1971415;72;21581;-78
2021/05/26 07:46:28;;;;;;;3.47;0.82;;;12.00;99.90;;;;;;1980576;72;21075;-77
2021/05/26 07:48:55;;;;;;;2.05;0.75;;;12.10;99.90;;;;;;1978002;72;21055;-77
2021/05/26 07:51:27;;;;;;;5.17;0.88;;;12.00;99.90;;;;;;1971063;72;21071;-76
2021/05/26 07:53:48;;;;;;;3.60;0.80;;;12.10;99.90;;;;;;1978911;72;21518;-76
2021/05/26 07:56:15;;;;;;;1.25;0.80;;;12.20;99.90;;;;;;1970928;72;21539;-76
2021/05/26 07:58:41;;;;;;;3.98;1.25;;;12.20;99.90;;;;;;1974615;72;21515;-77
2021/05/26 08:01:09;;;;;;;5.58;1.42;;;12.20;99.90;;;;;;1974108;72;21467;-76
2021/05/26 08:03:35;;;;;;;3.95;1.30;;;12.00;99.90;;;;;;1970698;72;21082;-76
2021/05/26 08:06:01;;;;;;;3.47;0.93;;;12.10;99.90;;;;;;1985018;72;21058;-76
2021/05/26 08:08:27;;;;;;;3.35;1.02;;;12.20;99.90;;;;;;1980106;72;21145;-76
2021/05/26 08:10:54;;;;;;;2.77;1.10;;;12.20;99.90;;;;;;1969677;72;21064;-76
2021/05/26 08:13:20;;;;;;;5.12;1.10;;;12.20;99.90;;;;;;1968751;72;21125;-76
2021/05/26 08:15:46;;;;;;;3.00;0.80;;;12.30;99.90;;;;;;1974439;73;21043;-76
2021/05/26 08:18:12;;;;;;;3.87;0.95;;;12.10;99.90;;;;;;1971311;72;21110;-76
2021/05/26 08:20:38;;;;;;;1.72;0.75;;;11.90;99.90;;;;;;1974457;73;21032;-76
2021/05/26 08:23:04;;;;;;;3.02;0.80;;;11.80;99.90;;;;;;1974508;73;21144;-76
2021/05/26 08:25:30;;;;;;;2.77;0.88;;;11.80;99.90;;;;;;1974449;72;21052;-76
2021/05/26 08:27:57;;;;;;;3.52;0.95;;;11.80;99.90;;;;;;1974519;73;21059;-76
2021/05/26 08:30:23;;;;;;;3.20;1.05;;;11.60;99.90;;;;;;1973962;72;21039;-76
2021/05/26 08:32:49;;;;;;;0.85;0.72;;;11.70;99.90;;;;;;1991592;72;21051;-77
2021/05/26 08:35:15;;;;;;;5.15;1.07;;;11.60;99.90;;;;;;1978615;72;21458;-76
2021/05/26 08:37:42;;;;;;;6.37;1.07;;;11.60;99.90;;;;;;1974352;72;21090;-77
2021/05/26 08:40:08;;;;;;;6.00;1.02;;;11.60;99.90;;;;;;1974562;72;21174;-77
2021/05/26 08:42:34;;;;;;;7.55;1.05;;;11.60;99.90;;;;;;1974556;73;21048;-76
2021/05/26 08:45:00;;;;;;;3.47;1.42;;;11.50;99.90;;;;;;1977070;72;21134;-77
2021/05/26 08:47:26;;;;;;;7.92;1.37;;;11.50;99.90;;;;;;1968202;72;21129;-76
2021/05/26 08:49:52;;;;;;;1.45;0.72;;;11.50;99.90;;;;;;1974706;73;21067;-76
2021/05/26 08:52:18;;;;;;;1.40;0.88;;;11.40;99.90;;;;;;1972521;72;21056;-77
2021/05/26 08:54:46;;;;;;;3.12;0.90;;;11.30;99.90;;;;;;1972631;72;21050;-76
2021/05/26 08:57:12;;;;;;;7.55;1.17;;;11.30;99.90;;;;;;1973397;72;21164;-76
2021/05/26 08:59:38;;;;;;;2.05;0.90;;;11.20;99.90;;;;;;1969265;72;21054;-77
2021/05/26 09:02:05;;;;;;;3.83;0.82;;;11.10;99.90;;;;;;1982281;72;21046;-77
2021/05/26 09:04:31;;;;;;;9.95;1.02;;;11.00;99.90;;;;;;1981117;72;21062;-77
2021/05/26 09:06:57;;;;;;;3.75;1.10;;;11.00;99.90;;;;;;1970385;72;21059;-77
2021/05/26 09:09:23;;;;;;;4.08;1.32;;;11.00;99.90;;;;;;1982945;72;21137;-77
2021/05/26 09:11:49;;;;;;;2.60;1.00;;;11.10;99.90;;;;;;1974082;72;21036;-77
2021/05/26 09:14:16;;;;;;;4.60;1.10;;;11.20;99.90;;;;;;1974349;73;21051;-77
2021/05/26 09:16:42;;;;;;;4.97;1.32;;;11.10;99.90;;;;;;1975260;72;21078;-78
2021/05/26 09:19:12;;;;;;;1.87;0.88;;;11.20;99.90;;;;;;1985547;72;21447;-76
2021/05/26 09:21:36;;;;;;;5.95;1.20;;;11.30;99.90;;;;;;1970428;72;21064;-77
2021/05/26 09:24:02;;;;;;;8.28;1.87;;;11.40;99.90;;;;;;1976063;72;21467;-77
2021/05/26 09:26:28;;;;;;;1.77;0.82;;;11.40;99.90;;;;;;1964023;72;21449;-77
2021/05/26 09:28:54;;;;;;;1.70;0.98;;;11.40;99.90;;;;;;1976312;72;21482;-76
2021/05/26 09:31:20;;;;;;;3.75;0.95;;;11.50;99.90;;;;;;1972380;72;21636;-77
2021/05/26 09:33:51;;;;;;;4.75;0.90;;;11.60;99.90;;;;;;1974148;72;21032;-77
2021/05/26 09:36:14;;;;;;;4.62;0.82;;;11.70;99.90;;;;;;1973850;72;21097;-77
2021/05/26 09:38:40;;;;;;;3.05;1.07;;;11.80;99.90;;;;;;1974465;73;21137;-77
2021/05/26 09:41:06;;;;;;;6.97;0.85;;;11.80;99.90;;;;;;1974404;73;21481;-77
2021/05/26 09:43:32;;;;;;;0.80;0.70;;;11.80;99.90;;;;;;1974315;72;21624;-77
2021/05/26 09:45:59;;;;;;;4.17;0.90;;;11.80;99.90;;;;;;1971144;72;21431;-76
2021/05/26 09:48:25;;;;;;;3.55;1.15;;;11.80;99.90;;;;;;1975228;72;21455;-76
2021/05/26 09:50:51;;;;;;;1.40;0.57;;;11.90;99.90;;;;;;1969559;72;21522;-77
2021/05/26 09:53:19;;;;;;;5.58;0.93;;;11.90;99.90;;;;;;1975585;72;21433;-77
2021/05/26 09:55:45;;;;;;;2.02;0.80;;;11.90;99.90;;;;;;1969194;72;21144;-77
2021/05/26 09:58:11;;;;;;;1.52;0.60;;;12.00;99.90;;;;;;1978272;72;21074;-76
2021/05/26 10:00:38;;;;;;;3.90;0.98;;;12.00;99.90;;;;;;1981217;72;21218;-77
2021/05/26 10:03:06;;;;;;;4.78;0.90;;;12.00;99.90;;;;;;1973595;72;21033;-77
2021/05/26 10:05:32;;;;;;;6.40;0.93;;;12.20;99.90;;;;;;1970223;72;21076;-76
2021/05/26 10:07:58;;;;;;;0.90;0.65;;;12.20;99.90;;;;;;1981465;72;21059;-76
2021/05/26 10:10:24;;;;;;;2.30;0.78;;;12.20;99.90;;;;;;1968053;72;21055;-76
2021/05/26 10:12:52;;;;;;;0.93;0.60;;;12.10;99.90;;;;;;1984846;72;21055;-76
2021/05/26 10:15:18;;;;;;;3.83;0.82;;;12.10;99.90;;;;;;1973592;72;21081;-76
2021/05/26 10:17:50;;;;;;;0.95;0.53;;;11.90;99.90;;;;;;1979954;72;21140;-76
2021/05/26 10:20:12;;;;;;;0.85;0.42;;;12.00;99.90;;;;;;1969991;72;21443;-77
2021/05/26 10:22:38;;;;;;;1.70;0.50;;;12.10;99.90;;;;;;1984759;72;21050;-77
2021/05/26 10:25:04;;;;;;;1.02;0.50;;;12.00;99.90;;;;;;1988897;72;21102;-77
2021/05/26 10:27:30;;;;;;;0.88;0.60;;;12.10;99.90;;;;;;1974248;73;21051;-77
2021/05/26 10:29:58;;;;;;;1.00;0.40;;;12.00;99.90;;;;;;1973899;72;21533;-77
2021/05/26 10:32:24;;;;;;;1.15;0.68;;;12.00;99.90;;;;;;1973599;72;21497;-77
2021/05/26 10:34:53;;;;;;;1.20;0.50;;;11.90;99.90;;;;;;1974358;72;21128;-77
2021/05/26 10:37:18;;;;;;;1.32;0.60;;;12.00;99.90;;;;;;1972786;72;21149;-76
2021/05/26 10:39:44;;;;;;;4.33;0.72;;;11.90;99.90;;;;;;1969495;72;21050;-77
2021/05/26 10:42:11;;;;;;;0.33;0.33;;;12.10;99.90;;;;;;1976848;72;21128;-76
2021/05/26 10:44:37;;;;;;;1.02;0.25;;;12.20;99.90;;;;;;1973110;72;21064;-76
2021/05/26 10:47:03;;;;;;;3.00;0.62;;;12.30;99.90;;;;;;1977807;72;21032;-77
2021/05/26 10:49:29;;;;;;;2.45;0.70;;;12.50;99.90;;;;;;1973699;72;21125;-77
2021/05/26 10:51:56;;;;;;;4.67;0.62;;;12.50;99.90;;;;;;1971393;72;21143;-76
2021/05/26 10:54:22;;;;;;;1.30;0.70;;;12.40;99.90;;;;;;1979522;72;21488;-77
2021/05/26 10:56:49;;;;;;;1.90;0.75;;;12.50;99.90;;;;;;1976931;72;21498;-77
2021/05/26 10:59:15;;;;;;;4.37;0.57;;;12.50;99.90;;;;;;1974500;73;21473;-77
2021/05/26 11:01:41;;;;;;;1.27;0.50;;;12.60;99.90;;;;;;1973383;72;21506;-76
2021/05/26 11:04:07;;;;;;;2.27;0.60;;;12.80;99.90;;;;;;1980528;72;21132;-77
2021/05/26 11:06:33;;;;;;;1.22;0.50;;;12.60;99.90;;;;;;1974972;72;21068;-76
2021/05/26 11:09:00;;;;;;;0.68;0.60;;;12.40;99.90;;;;;;1971279;72;21062;-78
2021/05/26 11:11:28;;;;;;;1.75;0.40;;;12.70;99.90;;;;;;1968300;72;21067;-75
2021/05/26 11:13:54;;;;;;;1.82;0.75;;;12.70;99.90;;;;;;1971056;72;21050;-75
2021/05/26 11:16:20;;;;;;;0.50;0.50;;;12.70;99.90;;;;;;1985048;72;21120;-75
2021/05/26 11:18:46;;;;;;;0.70;0.35;;;12.60;99.90;;;;;;1981773;72;21109;-76
2021/05/26 11:21:12;;;;;;;0.42;0.40;;;12.60;99.90;;;;;;1964703;72;21058;-76
2021/05/26 11:23:38;;;;;;;1.65;0.65;;;12.50;99.90;;;;;;1974409;73;21088;-76
2021/05/26 11:26:05;;;;;;;1.37;0.50;;;12.70;99.90;;;;;;1974667;73;21032;-77
2021/05/26 11:28:31;;;;;;;1.10;0.70;;;12.60;99.90;;;;;;1968917;72;21063;-76
2021/05/26 11:30:57;;;;;;;2.37;0.60;;;12.60;99.90;;;;;;1971308;72;21111;-76
2021/05/26 11:33:23;;;;;;;1.57;0.50;;;12.70;99.90;;;;;;1978032;72;21254;-77
2021/05/26 11:35:51;;;;;;;0.60;0.60;;;12.80;99.90;;;;;;1975768;72;21079;-75
2021/05/26 11:38:18;;;;;;;1.47;0.60;;;13.00;99.90;;;;;;1971681;72;21067;-73
2021/05/26 11:40:44;;;;;;;0.95;0.45;;;12.90;99.90;;;;;;1971319;72;21087;-75
2021/05/26 11:43:10;;;;;;;1.17;0.60;;;12.90;99.90;;;;;;1987168;72;21043;-76
2021/05/26 11:45:37;;;;;;;2.02;0.50;;;13.00;99.90;;;;;;1970373;72;21133;-76
2021/05/26 11:48:04;;;;;;;0.53;0.47;;;12.90;99.90;;;;;;1974271;73;21231;-76
2021/05/26 11:50:30;;;;;;;2.35;0.70;;;13.00;99.90;;;;;;1979764;72;21039;-77
2021/05/26 11:52:56;;;;;;;2.25;0.60;;;13.10;99.90;;;;;;1975772;72;21195;-76
2021/05/26 11:55:22;;;;;;;1.98;0.45;;;13.00;99.90;;;;;;1972940;72;21056;-75
2021/05/26 11:57:48;;;;;;;3.87;0.60;;;13.00;99.90;;;;;;1974893;73;21052;-75
2021/05/26 12:00:15;;;;;;;2.08;0.55;;;13.10;99.90;;;;;;1968579;72;21027;-75
2021/05/26 12:02:41;;;;;;;1.27;0.68;;;13.10;99.90;;;;;;1972653;72;21059;-76
2021/05/26 12:05:07;;;;;;;4.10;0.42;;;13.20;99.90;;;;;;1969418;72;21058;-76
2021/05/26 12:07:33;;;;;;;3.83;0.40;;;13.20;99.90;;;;;;1975692;72;21192;-76
2021/05/26 12:10:00;;;;;;;3.45;1.32;;;13.10;99.90;;;;;;1979517;72;21031;-75
2021/05/26 12:12:26;;;;;;;1.72;0.40;;;13.20;99.90;;;;;;1985116;72;21047;-76
2021/05/26 12:14:52;;;;;;;1.00;0.50;;;13.30;99.90;;;;;;1973350;72;21050;-77
2021/05/26 12:17:18;;;;;;;0.47;0.37;;;13.30;99.90;;;;;;1978519;72;21109;-77
2021/05/26 12:19:45;;;;;;;5.25;0.50;;;13.30;99.90;;;;;;1974096;72;21059;-76
2021/05/26 12:22:17;;;;;;;1.45;0.40;;;13.40;99.90;;;;;;1973987;73;21096;-76
2021/05/26 12:24:38;;;;;;;1.72;0.65;;;13.40;99.90;;;;;;1971942;72;21072;-76
2021/05/26 12:27:05;;;;;;;0.42;0.42;;;13.40;99.90;;;;;;1979789;72;21063;-76
2021/05/26 12:29:31;;;;;;;3.45;0.42;;;13.60;99.90;;;;;;1974242;72;21057;-75
2021/05/26 12:31:58;;;;;;;1.60;0.47;;;13.50;99.90;;;;;;1974231;72;21084;-77
2021/05/26 12:34:27;;;;;;;0.50;0.50;;;13.70;99.90;;;;;;1974219;72;21040;-77
2021/05/26 12:36:52;;;;;;;0.20;0.20;;;13.80;99.90;;;;;;1974029;72;21457;-76
2021/05/26 12:39:19;;;;;;;0.20;0.20;;;14.10;99.90;;;;;;1978200;72;21061;-77
2021/05/26 12:41:45;;;;;;;0.65;0.45;;;14.30;99.90;;;;;;1975350;72;21059;-76